Time;durP1;ratioP1;P1;durP2;ratioP2;P2;SDS_P1;SDS_P2;PMS_P1;PMS_P2;Temp;Humidity;BMP_temperature;BMP_pressure;BME280_temperature;BME280_humidity;BME280_pressure;Samples;Min_cycle;Max_cycle;Signal;HPM_P1;HPM_P2
2021/12/20 00:01:00;;;;;;;11.40;1.33;;;;;;;;;;5029814;28;20033;-68
2021/12/20 00:03:26;;;;;;;8.50;1.17;;;;;;;;;;5023112;28;20034;-68
2021/12/20 00:05:51;;;;;;;9.27;1.63;;;;;;;;;;5014466;28;20041;-68
2021/12/20 00:08:16;;;;;;;4.90;0.82;;;;;;;;;;5027818;28;20033;-69
2021/12/20 00:10:41;;;;;;;7.10;0.93;;;;;;;;;;5030640;28;20458;-68
2021/12/20 00:13:07;;;;;;;5.28;0.77;;;;;;;;;;5032216;28;20041;-69
2021/12/20 00:15:32;;;;;;;5.55;0.60;;;;;;;;;;5032505;28;20029;-69
2021/12/20 00:17:57;;;;;;;7.00;0.80;;;;;;;;;;5032202;28;20021;-69
2021/12/20 00:20:22;;;;;;;7.63;0.98;;;;;;;;;;5013882;28;20052;-68
2021/12/20 00:22:48;;;;;;;8.07;0.98;;;;;;;;;;5014329;28;20026;-68
2021/12/20 00:25:13;;;;;;;6.20;1.10;;;;;;;;;;5014196;28;20120;-70
2021/12/20 00:27:38;;;;;;;7.47;0.88;;;;;;;;;;5031129;28;20014;-68
2021/12/20 00:30:04;;;;;;;4.30;1.00;;;;;;;;;;5032298;28;20071;-69
2021/12/20 00:32:30;;;;;;;8.70;1.60;;;;;;;;;;5031805;28;20102;-69
2021/12/20 00:34:55;;;;;;;6.53;0.68;;;;;;;;;;5031361;28;20026;-69
2021/12/20 00:40:22;;;;;;;5.70;1.20;;;;;;;;;;5025362;28;20103;-69
2021/12/20 00:42:48;;;;;;;11.70;1.15;;;;;;;;;;5031106;28;20029;-69
2021/12/20 00:45:13;;;;;;;5.63;1.00;;;;;;;;;;5031835;28;20031;-69
2021/12/20 00:47:39;;;;;;;11.85;1.30;;;;;;;;;;5014095;28;20028;-69
2021/12/20 00:50:05;;;;;;;9.18;1.77;;;;;;;;;;5031848;28;20014;-69
2021/12/20 00:52:31;;;;;;;5.80;1.25;;;;;;;;;;5013752;28;20026;-68
2021/12/20 00:54:56;;;;;;;5.63;0.70;;;;;;;;;;5031649;28;20032;-69
2021/12/20 00:57:21;;;;;;;6.63;0.77;;;;;;;;;;5013816;28;20032;-68
2021/12/20 00:59:46;;;;;;;7.43;0.95;;;;;;;;;;5031863;28;20085;-69
2021/12/20 01:02:11;;;;;;;6.07;0.82;;;;;;;;;;5022555;28;20525;-68
2021/12/20 01:04:37;;;;;;;8.20;1.02;;;;;;;;;;5020346;28;20026;-69
2021/12/20 01:07:02;;;;;;;7.93;1.30;;;;;;;;;;5031635;28;20040;-68
2021/12/20 01:09:27;;;;;;;8.07;1.48;;;;;;;;;;5028234;28;20022;-69
2021/12/20 01:11:54;;;;;;;7.50;1.00;;;;;;;;;;5031422;28;20399;-70
2021/12/20 01:14:24;;;;;;;9.05;1.90;;;;;;;;;;5031148;28;20026;-70
2021/12/20 01:16:50;;;;;;;8.88;1.35;;;;;;;;;;5031899;28;20021;-69
2021/12/20 01:19:15;;;;;;;6.60;1.10;;;;;;;;;;5013320;28;20029;-70
2021/12/20 01:21:40;;;;;;;7.10;1.10;;;;;;;;;;5013631;28;20482;-68
2021/12/20 01:24:05;;;;;;;7.10;1.08;;;;;;;;;;5013376;28;20080;-68
2021/12/20 01:26:31;;;;;;;4.65;0.85;;;;;;;;;;5031599;28;20422;-68
2021/12/20 01:28:56;;;;;;;9.60;1.13;;;;;;;;;;5014023;28;20021;-69
2021/12/20 01:31:21;;;;;;;7.25;1.23;;;;;;;;;;5031393;28;20132;-68
2021/12/20 01:33:46;;;;;;;8.45;1.98;;;;;;;;;;5031081;28;20025;-68
2021/12/20 01:36:12;;;;;;;7.65;1.40;;;;;;;;;;5013094;28;20025;-69
2021/12/20 01:38:37;;;;;;;4.10;0.60;;;;;;;;;;5018884;28;20084;-70
2021/12/20 01:41:03;;;;;;;7.07;1.58;;;;;;;;;;5030198;28;20036;-69
2021/12/20 01:43:28;;;;;;;5.67;1.03;;;;;;;;;;5034765;28;20370;-69
2021/12/20 01:45:53;;;;;;;5.17;0.90;;;;;;;;;;5017139;28;20112;-69
2021/12/20 01:48:20;;;;;;;3.77;0.87;;;;;;;;;;5034188;28;20075;-69
2021/12/20 01:53:12;;;;;;;8.43;2.03;;;;;;;;;;5035014;28;20029;-69
2021/12/20 01:55:38;;;;;;;5.23;1.20;;;;;;;;;;5017214;28;20319;-69
2021/12/20 01:58:04;;;;;;;3.87;0.70;;;;;;;;;;5034548;28;20024;-69
2021/12/20 02:00:29;;;;;;;6.17;0.67;;;;;;;;;;5017129;28;20066;-68
2021/12/20 02:03:00;;;;;;;4.20;0.60;;;;;;;;;;5017031;28;20026;-69
2021/12/20 02:05:46;;;;;;;3.97;0.50;;;;;;;;;;5033936;28;20392;-68
2021/12/20 02:08:18;;;;;;;6.25;0.65;;;;;;;;;;5031599;28;20120;-69
2021/12/20 02:10:44;;;;;;;5.07;0.40;;;;;;;;;;5015102;28;20038;-68
2021/12/20 02:13:11;;;;;;;4.87;0.60;;;;;;;;;;5034325;28;20094;-68
2021/12/20 02:15:36;;;;;;;8.00;0.73;;;;;;;;;;5035125;28;20026;-69
2021/12/20 02:18:02;;;;;;;5.63;0.70;;;;;;;;;;4999263;28;20466;-68
2021/12/20 02:20:28;;;;;;;6.53;1.00;;;;;;;;;;5015932;28;20026;-69
2021/12/20 02:22:55;;;;;;;4.63;0.80;;;;;;;;;;5034241;28;20413;-69
2021/12/20 02:25:20;;;;;;;9.43;1.00;;;;;;;;;;5034702;28;20017;-68
2021/12/20 02:27:45;;;;;;;8.63;0.70;;;;;;;;;;5033905;28;20429;-68
2021/12/20 02:30:34;;;;;;;8.65;0.80;;;;;;;;;;5033994;28;20036;-68
2021/12/20 02:38:19;;;;;;;5.03;0.60;;;;;;;;;;5031899;28;20049;-68
2021/12/20 02:40:46;;;;;;;8.57;0.90;;;;;;;;;;5031085;28;20025;-69
2021/12/20 02:43:14;;;;;;;8.30;0.80;;;;;;;;;;5033371;28;20041;-68
2021/12/20 02:45:40;;;;;;;7.87;1.13;;;;;;;;;;5033938;28;20060;-68
2021/12/20 02:48:05;;;;;;;5.23;0.50;;;;;;;;;;5033491;28;20068;-68
2021/12/20 02:50:31;;;;;;;4.77;0.70;;;;;;;;;;5014831;28;20025;-68
2021/12/20 02:52:56;;;;;;;7.67;0.70;;;;;;;;;;4995620;28;20029;-68
2021/12/20 02:55:21;;;;;;;8.03;0.87;;;;;;;;;;5033503;28;20029;-68
2021/12/20 02:57:46;;;;;;;5.03;1.00;;;;;;;;;;5033516;28;20490;-68
2021/12/20 03:00:12;;;;;;;7.17;1.47;;;;;;;;;;5015434;28;20470;-69
2021/12/20 03:02:37;;;;;;;5.47;0.70;;;;;;;;;;5033308;28;20025;-69
2021/12/20 03:05:03;;;;;;;4.50;1.10;;;;;;;;;;5032967;28;20478;-67
2021/12/20 03:07:28;;;;;;;5.43;0.90;;;;;;;;;;5033759;28;20009;-67
2021/12/20 03:10:00;;;;;;;9.07;1.13;;;;;;;;;;5027795;28;20017;-67
2021/12/20 03:12:28;;;;;;;9.10;1.33;;;;;;;;;;5031654;28;20025;-67
2021/12/20 03:14:59;;;;;;;5.67;1.13;;;;;;;;;;5032931;28;20033;-68
2021/12/20 03:17:25;;;;;;;5.53;0.90;;;;;;;;;;5016483;28;20039;-68
2021/12/20 03:19:50;;;;;;;9.97;1.30;;;;;;;;;;5032861;28;20116;-69
2021/12/20 03:22:17;;;;;;;7.83;1.00;;;;;;;;;;5015677;28;20037;-69
2021/12/20 03:24:42;;;;;;;7.77;0.93;;;;;;;;;;5022624;28;20022;-68
2021/12/20 03:27:07;;;;;;;8.07;1.10;;;;;;;;;;4999755;28;20536;-68
2021/12/20 03:29:32;;;;;;;7.17;0.97;;;;;;;;;;5016937;28;20025;-68
2021/12/20 03:31:58;;;;;;;8.70;1.40;;;;;;;;;;5031853;28;20033;-68
2021/12/20 03:34:23;;;;;;;10.00;0.97;;;;;;;;;;5031751;28;20037;-67
2021/12/20 03:36:48;;;;;;;9.83;1.10;;;;;;;;;;5015670;28;20025;-67
2021/12/20 03:39:14;;;;;;;8.33;1.40;;;;;;;;;;5012562;28;20060;-68
2021/12/20 03:41:39;;;;;;;7.63;1.40;;;;;;;;;;5032345;28;20037;-68
2021/12/20 03:44:05;;;;;;;7.37;1.33;;;;;;;;;;5033030;28;20021;-68
2021/12/20 03:46:30;;;;;;;6.50;1.50;;;;;;;;;;5032835;28;20044;-67
2021/12/20 03:48:55;;;;;;;9.30;1.60;;;;;;;;;;5010874;28;20029;-68
2021/12/20 03:51:20;;;;;;;5.10;1.30;;;;;;;;;;5032201;28;20087;-66
2021/12/20 03:53:46;;;;;;;8.27;1.80;;;;;;;;;;5015018;28;20022;-67
2021/12/20 03:56:11;;;;;;;7.80;1.73;;;;;;;;;;5031331;28;20451;-67
2021/12/20 03:58:36;;;;;;;9.23;2.07;;;;;;;;;;5032245;28;20083;-68
2021/12/20 04:01:07;;;;;;;15.87;2.73;;;;;;;;;;5032707;28;20022;-68
2021/12/20 04:03:34;;;;;;;8.00;2.00;;;;;;;;;;5013702;28;20083;-69
2021/12/20 04:06:00;;;;;;;10.57;2.80;;;;;;;;;;5031857;28;20040;-68
2021/12/20 04:08:25;;;;;;;10.37;2.30;;;;;;;;;;5024601;28;20375;-69
2021/12/20 04:10:51;;;;;;;10.97;2.57;;;;;;;;;;5031546;28;20034;-68
2021/12/20 04:13:16;;;;;;;12.57;2.40;;;;;;;;;;5031919;28;20025;-69
2021/12/20 04:15:41;;;;;;;6.07;1.83;;;;;;;;;;5028717;28;20033;-68
2021/12/20 04:18:06;;;;;;;10.37;2.00;;;;;;;;;;5010291;28;20034;-68
2021/12/20 04:20:32;;;;;;;10.13;1.80;;;;;;;;;;5014137;28;20120;-68
2021/12/20 04:22:57;;;;;;;7.90;1.47;;;;;;;;;;5014424;28;20045;-69
2021/12/20 04:25:22;;;;;;;8.67;1.40;;;;;;;;;;5032074;28;20033;-69
2021/12/20 04:27:47;;;;;;;9.27;1.63;;;;;;;;;;5030060;28;20064;-69
2021/12/20 04:30:13;;;;;;;7.37;1.67;;;;;;;;;;5032031;28;20063;-68
2021/12/20 04:32:40;;;;;;;14.30;2.37;;;;;;;;;;5031795;28;20032;-68
2021/12/20 04:35:06;;;;;;;6.17;0.80;;;;;;;;;;5030939;28;20401;-68
2021/12/20 04:37:31;;;;;;;7.27;1.73;;;;;;;;;;5030430;28;20071;-68
2021/12/20 04:39:57;;;;;;;7.40;1.50;;;;;;;;;;5030425;28;20045;-69
2021/12/20 04:42:23;;;;;;;8.43;1.27;;;;;;;;;;5030444;28;20191;-68
2021/12/20 04:44:48;;;;;;;9.03;0.90;;;;;;;;;;5013705;28;20509;-69
2021/12/20 04:47:13;;;;;;;7.03;1.30;;;;;;;;;;5028890;28;20121;-68
2021/12/20 04:49:38;;;;;;;5.30;1.20;;;;;;;;;;5013760;28;20025;-69
2021/12/20 04:52:03;;;;;;;7.97;1.33;;;;;;;;;;5031470;28;20488;-69
2021/12/20 04:54:29;;;;;;;7.00;1.40;;;;;;;;;;5031670;28;20110;-69
2021/12/20 04:56:54;;;;;;;3.53;1.07;;;;;;;;;;5031555;28;20036;-69
2021/12/20 04:59:19;;;;;;;6.73;1.47;;;;;;;;;;5031065;28;20038;-69
2021/12/20 05:01:44;;;;;;;6.63;1.73;;;;;;;;;;5031803;28;20021;-69
2021/12/20 05:04:10;;;;;;;6.63;1.40;;;;;;;;;;5030931;28;20433;-68
2021/12/20 05:06:35;;;;;;;10.13;2.00;;;;;;;;;;5008892;28;20112;-69
2021/12/20 05:09:03;;;;;;;8.67;1.00;;;;;;;;;;5029514;28;20022;-68
2021/12/20 05:11:30;;;;;;;9.67;1.70;;;;;;;;;;5031272;28;20029;-67
2021/12/20 05:13:55;;;;;;;9.63;1.40;;;;;;;;;;5031714;28;20042;-69
2021/12/20 05:16:20;;;;;;;4.40;1.30;;;;;;;;;;5034198;28;20469;-68
2021/12/20 05:18:46;;;;;;;7.10;1.50;;;;;;;;;;5035683;28;20450;-68
2021/12/20 05:21:12;;;;;;;6.97;1.07;;;;;;;;;;5035012;28;20030;-69
2021/12/20 05:23:37;;;;;;;6.70;1.27;;;;;;;;;;5035780;28;20029;-68
2021/12/20 05:26:02;;;;;;;7.40;1.40;;;;;;;;;;5010984;28;20037;-69
2021/12/20 05:28:27;;;;;;;7.07;1.40;;;;;;;;;;5030417;28;20018;-68
2021/12/20 05:30:53;;;;;;;8.77;2.10;;;;;;;;;;5022806;28;20500;-68
2021/12/20 05:33:19;;;;;;;5.27;1.37;;;;;;;;;;5016870;28;20512;-69
2021/12/20 05:35:44;;;;;;;5.80;1.40;;;;;;;;;;5016997;28;20029;-69
2021/12/20 05:38:09;;;;;;;7.50;1.60;;;;;;;;;;5014811;28;20531;-68
2021/12/20 05:40:35;;;;;;;7.40;1.50;;;;;;;;;;5033601;28;20044;-69
2021/12/20 05:43:00;;;;;;;10.40;1.50;;;;;;;;;;5034803;28;20124;-68
2021/12/20 05:45:26;;;;;;;4.83;1.17;;;;;;;;;;5034943;28;20072;-69
2021/12/20 05:47:51;;;;;;;6.83;1.10;;;;;;;;;;5042450;28;20020;-68
2021/12/20 05:50:17;;;;;;;11.10;1.83;;;;;;;;;;5016616;28;20029;-68
2021/12/20 05:52:42;;;;;;;6.47;1.70;;;;;;;;;;5016734;28;20029;-70
2021/12/20 05:55:08;;;;;;;8.67;1.67;;;;;;;;;;5035259;28;20087;-68
2021/12/20 05:57:34;;;;;;;8.60;1.33;;;;;;;;;;5034285;28;20647;-68
2021/12/20 05:59:59;;;;;;;8.07;1.40;;;;;;;;;;5032913;28;20052;-66
2021/12/20 06:02:25;;;;;;;8.93;1.80;;;;;;;;;;5022628;28;20115;-67
2021/12/20 06:04:51;;;;;;;7.40;1.27;;;;;;;;;;5015955;28;20482;-70
2021/12/20 06:07:19;;;;;;;7.60;1.23;;;;;;;;;;5034107;28;20028;-69
2021/12/20 06:09:45;;;;;;;6.10;1.37;;;;;;;;;;5029860;28;20059;-68
2021/12/20 06:12:10;;;;;;;10.73;1.90;;;;;;;;;;5033394;28;20114;-67
2021/12/20 06:14:35;;;;;;;11.20;1.50;;;;;;;;;;5017312;28;20382;-70
2021/12/20 06:17:01;;;;;;;7.90;0.90;;;;;;;;;;5032160;28;20071;-68
2021/12/20 06:19:27;;;;;;;9.03;1.80;;;;;;;;;;4996825;28;20470;-68
2021/12/20 06:21:52;;;;;;;9.20;1.10;;;;;;;;;;5033252;28;20083;-68
2021/12/20 06:24:17;;;;;;;5.90;1.43;;;;;;;;;;5034704;28;20022;-67
2021/12/20 06:26:43;;;;;;;9.83;1.77;;;;;;;;;;5032661;28;20417;-66
2021/12/20 06:29:08;;;;;;;7.17;1.40;;;;;;;;;;5034471;28;20029;-67
2021/12/20 06:31:33;;;;;;;6.77;1.07;;;;;;;;;;5033929;28;20033;-67
2021/12/20 06:33:58;;;;;;;10.07;1.60;;;;;;;;;;5033855;28;20474;-68
2021/12/20 06:36:26;;;;;;;6.37;1.50;;;;;;;;;;5033558;28;20064;-68
2021/12/20 06:38:53;;;;;;;9.73;1.47;;;;;;;;;;5029661;28;20050;-67
2021/12/20 06:41:18;;;;;;;4.80;1.03;;;;;;;;;;5017414;28;20100;-67
2021/12/20 06:43:44;;;;;;;8.00;1.40;;;;;;;;;;5033400;28;20053;-67
2021/12/20 06:46:10;;;;;;;5.90;1.27;;;;;;;;;;5033696;28;20116;-66
2021/12/20 06:48:35;;;;;;;9.70;1.43;;;;;;;;;;5034238;28;20459;-68
2021/12/20 06:51:00;;;;;;;9.13;1.97;;;;;;;;;;5008341;28;20026;-67
2021/12/20 06:53:27;;;;;;;10.27;1.63;;;;;;;;;;5033172;28;20347;-68
2021/12/20 06:55:52;;;;;;;7.80;1.20;;;;;;;;;;5038239;28;20457;-68
2021/12/20 06:58:18;;;;;;;13.37;2.40;;;;;;;;;;5029851;28;20057;-68
2021/12/20 07:00:43;;;;;;;6.50;1.73;;;;;;;;;;4992805;28;20040;-70
2021/12/20 07:03:08;;;;;;;9.50;1.70;;;;;;;;;;5026068;28;20068;-68
2021/12/20 07:05:33;;;;;;;7.30;2.57;;;;;;;;;;5032398;28;20049;-69
2021/12/20 07:07:58;;;;;;;8.30;1.63;;;;;;;;;;5031686;28;20026;-68
2021/12/20 07:10:24;;;;;;;9.43;1.63;;;;;;;;;;5011148;28;20018;-73
2021/12/20 07:12:51;;;;;;;9.20;1.73;;;;;;;;;;5018252;28;20072;-71
2021/12/20 07:15:16;;;;;;;9.33;1.60;;;;;;;;;;5030413;28;20076;-73
2021/12/20 07:17:42;;;;;;;10.30;1.70;;;;;;;;;;5007943;28;20482;-76
2021/12/20 07:20:08;;;;;;;5.13;0.90;;;;;;;;;;5008872;28;20044;-73
2021/12/20 07:22:33;;;;;;;8.53;1.13;;;;;;;;;;5015291;28;20037;-74
2021/12/20 07:25:00;;;;;;;8.53;1.23;;;;;;;;;;5014188;28;20025;-74
2021/12/20 07:27:25;;;;;;;6.93;1.03;;;;;;;;;;5027132;28;20017;-74
2021/12/20 07:29:50;;;;;;;6.23;1.37;;;;;;;;;;5032834;28;20363;-73
2021/12/20 07:32:16;;;;;;;8.77;1.30;;;;;;;;;;5033161;28;20389;-75
2021/12/20 07:34:41;;;;;;;8.67;1.37;;;;;;;;;;5031998;28;20055;-73
2021/12/20 07:37:06;;;;;;;5.77;0.97;;;;;;;;;;5008996;28;20089;-74
2021/12/20 07:39:32;;;;;;;7.90;0.90;;;;;;;;;;5023303;28;20430;-74
2021/12/20 07:41:58;;;;;;;9.27;1.57;;;;;;;;;;5011665;28;20045;-76
2021/12/20 07:44:24;;;;;;;7.07;1.10;;;;;;;;;;5014074;28;20060;-76
2021/12/20 07:46:49;;;;;;;7.90;1.50;;;;;;;;;;5032408;28;20018;-76
2021/12/20 07:49:14;;;;;;;9.43;1.70;;;;;;;;;;5026280;28;20033;-75
2021/12/20 07:51:39;;;;;;;8.13;1.67;;;;;;;;;;5029789;28;20025;-74
2021/12/20 07:54:05;;;;;;;9.00;0.97;;;;;;;;;;5014419;28;20013;-73
2021/12/20 07:56:30;;;;;;;8.03;1.53;;;;;;;;;;5026573;28;20492;-76
2021/12/20 07:58:56;;;;;;;9.40;1.07;;;;;;;;;;5028701;28;20051;-74
2021/12/20 08:01:21;;;;;;;4.60;1.50;;;;;;;;;;5030730;28;20040;-75
2021/12/20 08:03:47;;;;;;;9.93;2.30;;;;;;;;;;5013750;28;20025;-74
2021/12/20 08:06:12;;;;;;;6.50;1.60;;;;;;;;;;5013646;28;20037;-74
2021/12/20 08:08:37;;;;;;;8.93;1.60;;;;;;;;;;5007430;28;20030;-74
2021/12/20 08:11:03;;;;;;;4.93;1.37;;;;;;;;;;5030628;28;20484;-71
2021/12/20 08:13:28;;;;;;;8.40;1.70;;;;;;;;;;5011960;28;20112;-76
2021/12/20 08:15:53;;;;;;;11.83;1.57;;;;;;;;;;4994784;28;20477;-74
2021/12/20 08:18:20;;;;;;;11.97;1.60;;;;;;;;;;4997118;28;20041;-75
2021/12/20 08:20:45;;;;;;;7.40;1.60;;;;;;;;;;5011425;28;20478;-73
2021/12/20 08:23:10;;;;;;;10.20;2.07;;;;;;;;;;5010239;28;20025;-74
2021/12/20 08:25:39;;;;;;;8.73;1.80;;;;;;;;;;5005478;28;20032;-75
2021/12/20 08:28:04;;;;;;;7.63;1.70;;;;;;;;;;5004578;28;20032;-73
2021/12/20 08:30:29;;;;;;;9.07;1.90;;;;;;;;;;5020564;28;20025;-74
2021/12/20 08:32:55;;;;;;;11.43;1.80;;;;;;;;;;4989638;28;20038;-76
2021/12/20 08:35:20;;;;;;;7.93;1.57;;;;;;;;;;5023559;28;20536;-74
2021/12/20 08:37:46;;;;;;;6.50;1.47;;;;;;;;;;5020038;28;20485;-73
2021/12/20 08:40:13;;;;;;;7.07;1.50;;;;;;;;;;4998589;28;20379;-76
2021/12/20 08:42:39;;;;;;;6.23;1.00;;;;;;;;;;5019220;28;20096;-75
2021/12/20 08:45:05;;;;;;;7.20;1.30;;;;;;;;;;5005698;28;20021;-74
2021/12/20 08:47:32;;;;;;;4.77;1.20;;;;;;;;;;5023788;28;20079;-73
2021/12/20 08:49:58;;;;;;;8.73;1.43;;;;;;;;;;5005537;28;20033;-76
2021/12/20 08:52:23;;;;;;;7.63;1.50;;;;;;;;;;5024319;28;20021;-75
2021/12/20 08:54:48;;;;;;;7.80;1.17;;;;;;;;;;5003452;28;20017;-73
2021/12/20 08:57:13;;;;;;;7.40;1.50;;;;;;;;;;5008161;28;20033;-73
2021/12/20 08:59:38;;;;;;;8.53;1.70;;;;;;;;;;5019774;28;20075;-76
2021/12/20 09:02:06;;;;;;;9.43;1.20;;;;;;;;;;5005387;28;20083;-76
2021/12/20 09:04:32;;;;;;;7.40;1.17;;;;;;;;;;5021496;28;20025;-73
2021/12/20 09:06:57;;;;;;;4.47;0.90;;;;;;;;;;5023023;28;20013;-74
2021/12/20 09:09:23;;;;;;;7.63;1.00;;;;;;;;;;4985337;28;20378;-73
2021/12/20 09:11:48;;;;;;;8.13;1.00;;;;;;;;;;5019737;28;20034;-75
2021/12/20 09:14:13;;;;;;;4.17;0.63;;;;;;;;;;5005354;28;20033;-73
2021/12/20 09:16:39;;;;;;;5.70;1.27;;;;;;;;;;5011471;28;20045;-75
2021/12/20 09:19:04;;;;;;;6.10;1.20;;;;;;;;;;5024134;28;20478;-76
2021/12/20 09:21:30;;;;;;;6.90;0.90;;;;;;;;;;5029637;28;20032;-73
2021/12/20 09:23:56;;;;;;;5.07;1.00;;;;;;;;;;5024275;28;20029;-73
2021/12/20 09:26:21;;;;;;;8.23;0.83;;;;;;;;;;5020714;28;20490;-75
2021/12/20 09:28:47;;;;;;;7.87;1.43;;;;;;;;;;5006277;28;20550;-76
2021/12/20 09:31:12;;;;;;;9.37;1.43;;;;;;;;;;4989126;28;20504;-76
2021/12/20 09:33:37;;;;;;;6.97;1.00;;;;;;;;;;5022625;28;20527;-73
2021/12/20 09:36:03;;;;;;;5.80;1.40;;;;;;;;;;5022783;28;20033;-76
2021/12/20 09:38:30;;;;;;;7.23;1.23;;;;;;;;;;4989556;28;20044;-75
2021/12/20 09:41:15;;;;;;;4.27;0.63;;;;;;;;;;5021925;28;20064;-73
2021/12/20 09:43:49;;;;;;;6.00;1.27;;;;;;;;;;5005051;28;20116;-74
2021/12/20 09:46:15;;;;;;;2.83;0.53;;;;;;;;;;5023465;28;20479;-76
2021/12/20 09:48:44;;;;;;;6.23;1.20;;;;;;;;;;5018794;28;20108;-75
2021/12/20 09:51:10;;;;;;;8.57;1.13;;;;;;;;;;5003071;28;20033;-73
2021/12/20 09:53:35;;;;;;;3.63;0.50;;;;;;;;;;5004717;28;20021;-74
2021/12/20 09:56:01;;;;;;;4.83;0.60;;;;;;;;;;5001963;28;20499;-73
2021/12/20 09:58:27;;;;;;;5.10;0.60;;;;;;;;;;5023822;28;20547;-74
2021/12/20 10:00:52;;;;;;;4.37;0.93;;;;;;;;;;5008712;28;20474;-73
2021/12/20 10:03:21;;;;;;;6.87;0.80;;;;;;;;;;5022761;28;20029;-73
2021/12/20 10:05:47;;;;;;;2.97;0.73;;;;;;;;;;5006874;28;20026;-75
2021/12/20 10:08:15;;;;;;;5.63;0.60;;;;;;;;;;5022227;28;20036;-76
2021/12/20 10:10:41;;;;;;;3.73;0.50;;;;;;;;;;5002699;28;20029;-75
2021/12/20 10:13:06;;;;;;;5.00;0.83;;;;;;;;;;5024831;28;20029;-75
2021/12/20 10:15:33;;;;;;;3.93;0.63;;;;;;;;;;5007612;28;20332;-75
2021/12/20 10:18:02;;;;;;;5.23;1.27;;;;;;;;;;5023802;28;20029;-75
2021/12/20 10:20:29;;;;;;;3.70;0.47;;;;;;;;;;5005458;28;20029;-73
2021/12/20 10:23:06;;;;;;;4.25;0.80;;;;;;;;;;5028595;28;20025;-74
2021/12/20 10:25:32;;;;;;;3.23;0.60;;;;;;;;;;5029245;28;20029;-75
2021/12/20 10:28:06;;;;;;;3.93;0.80;;;;;;;;;;5011039;28;20355;-75
2021/12/20 10:30:32;;;;;;;2.63;0.60;;;;;;;;;;5006264;28;20112;-74
2021/12/20 10:32:58;;;;;;;2.80;0.60;;;;;;;;;;5022617;28;20037;-75
2021/12/20 10:35:27;;;;;;;6.63;1.37;;;;;;;;;;5021211;28;20087;-76
2021/12/20 10:37:53;;;;;;;3.00;0.60;;;;;;;;;;5005974;28;20052;-72
2021/12/20 10:40:18;;;;;;;7.38;0.85;;;;;;;;;;5020106;28;20057;-74
2021/12/20 10:42:44;;;;;;;3.20;0.90;;;;;;;;;;5023050;28;20041;-73
2021/12/20 10:45:11;;;;;;;6.57;0.60;;;;;;;;;;5025372;28;20061;-76
2021/12/20 10:47:37;;;;;;;7.03;0.90;;;;;;;;;;5022539;28;20025;-72
2021/12/20 10:50:21;;;;;;;2.42;0.50;;;;;;;;;;5021731;28;20021;-74
2021/12/20 10:52:46;;;;;;;6.68;0.68;;;;;;;;;;5021776;28;20018;-73
2021/12/20 10:55:11;;;;;;;3.08;0.63;;;;;;;;;;5023720;28;20378;-76
2021/12/20 10:57:37;;;;;;;5.72;0.98;;;;;;;;;;5023866;28;20018;-72
2021/12/20 11:00:22;;;;;;;3.22;0.63;;;;;;;;;;5023778;28;20037;-74
2021/12/20 11:05:45;;;;;;;3.40;0.65;;;;;;;;;;5022168;28;20032;-75
2021/12/20 11:11:10;;;;;;;4.60;0.95;;;;;;;;;;5021595;28;20400;-72
2021/12/20 11:13:37;;;;;;;4.55;0.68;;;;;;;;;;5019902;28;20064;-74
2021/12/20 11:16:21;;;;;;;5.43;1.42;;;;;;;;;;5023973;28;20094;-73
2021/12/20 11:18:46;;;;;;;4.57;0.57;;;;;;;;;;5002747;28;21627;-72
2021/12/20 11:21:12;;;;;;;2.65;0.70;;;;;;;;;;5004811;28;20083;-75
2021/12/20 11:23:37;;;;;;;6.75;1.05;;;;;;;;;;5006044;28;20037;-73
2021/12/20 11:26:02;;;;;;;6.35;2.05;;;;;;;;;;5022814;28;20080;-72
2021/12/20 11:28:28;;;;;;;5.70;0.70;;;;;;;;;;5021299;28;20028;-74
2021/12/20 11:30:53;;;;;;;4.70;1.10;;;;;;;;;;5024194;28;20029;-72
2021/12/20 11:33:18;;;;;;;6.40;0.73;;;;;;;;;;5003805;28;20123;-73
2021/12/20 11:35:44;;;;;;;5.53;0.60;;;;;;;;;;5021157;28;20029;-74
2021/12/20 11:38:09;;;;;;;2.38;0.45;;;;;;;;;;5021663;28;20057;-73
2021/12/20 11:40:34;;;;;;;5.13;1.25;;;;;;;;;;5020108;28;20508;-74
2021/12/20 11:43:00;;;;;;;2.80;0.98;;;;;;;;;;5003908;28;20375;-73
2021/12/20 11:45:25;;;;;;;5.40;0.77;;;;;;;;;;5022975;28;20017;-72
2021/12/20 11:48:08;;;;;;;4.20;0.45;;;;;;;;;;5008096;28;20095;-75
2021/12/20 11:50:37;;;;;;;3.58;0.47;;;;;;;;;;5010840;28;20025;-74
2021/12/20 11:53:13;;;;;;;3.42;0.50;;;;;;;;;;5028025;28;20504;-73
2021/12/20 11:55:46;;;;;;;6.65;1.10;;;;;;;;;;5028137;28;20075;-74
2021/12/20 11:58:18;;;;;;;6.32;0.70;;;;;;;;;;5007604;28;20182;-76
2021/12/20 12:00:48;;;;;;;5.43;0.88;;;;;;;;;;5007137;28;20092;-75
2021/12/20 12:03:13;;;;;;;3.13;0.57;;;;;;;;;;5027623;28;20028;-73
2021/12/20 12:05:48;;;;;;;2.72;0.38;;;;;;;;;;5029212;28;20025;-74
2021/12/20 12:08:13;;;;;;;;;;;;;;;;;;5011703;28;20689;-74
2021/12/20 12:10:39;;;;;;;3.95;0.50;;;;;;;;;;5006303;28;19992;-74
2021/12/20 12:13:10;;;;;;;5.35;0.68;;;;;;;;;;5013359;28;20620;-72
2021/12/20 12:15:50;;;;;;;3.72;0.65;;;;;;;;;;4995637;28;20116;-72
2021/12/20 12:18:15;;;;;;;6.38;0.93;;;;;;;;;;5030110;28;20021;-74
2021/12/20 12:20:40;;;;;;;6.40;0.98;;;;;;;;;;5031222;28;20375;-75
2021/12/20 12:23:12;;;;;;;5.20;0.95;;;;;;;;;;5030812;28;20437;-73
2021/12/20 12:25:40;;;;;;;5.60;0.70;;;;;;;;;;5013589;28;20091;-75
2021/12/20 12:28:06;;;;;;;4.78;0.40;;;;;;;;;;5030909;28;20014;-76
2021/12/20 12:30:32;;;;;;;2.83;0.50;;;;;;;;;;5011789;28;20021;-74
2021/12/20 12:33:00;;;;;;;4.38;0.63;;;;;;;;;;5013506;28;20472;-73
2021/12/20 12:35:38;;;;;;;4.15;1.05;;;;;;;;;;5012922;28;20521;-75
2021/12/20 12:38:22;;;;;;;4.60;0.85;;;;;;;;;;5021958;28;20458;-74
2021/12/20 12:40:51;;;;;;;3.97;0.88;;;;;;;;;;5020708;28;20051;-74
2021/12/20 12:43:17;;;;;;;4.22;1.30;;;;;;;;;;5011608;28;20168;-73
2021/12/20 12:45:50;;;;;;;4.45;0.68;;;;;;;;;;5028112;28;20462;-74
2021/12/20 12:48:34;;;;;;;4.20;1.00;;;;;;;;;;5033728;28;20026;-74
2021/12/20 12:51:25;;;;;;;4.88;0.65;;;;;;;;;;5020938;28;20010;-75
2021/12/20 12:53:52;;;;;;;5.20;0.70;;;;;;;;;;4991051;28;20473;-74
2021/12/20 12:56:24;;;;;;;4.30;0.65;;;;;;;;;;4999664;28;20021;-72
2021/12/20 12:59:08;;;;;;;2.80;0.43;;;;;;;;;;5024873;28;20014;-74
2021/12/20 13:01:33;;;;;;;5.28;0.63;;;;;;;;;;5029941;28;20105;-76
2021/12/20 13:03:59;;;;;;;6.78;0.60;;;;;;;;;;5029615;28;20120;-75
2021/12/20 13:06:25;;;;;;;5.72;0.93;;;;;;;;;;5012839;28;20458;-73
2021/12/20 13:08:51;;;;;;;4.35;0.60;;;;;;;;;;5029077;28;20108;-74
2021/12/20 13:11:23;;;;;;;5.80;1.08;;;;;;;;;;5009917;28;20446;-76
2021/12/20 13:13:56;;;;;;;7.05;1.15;;;;;;;;;;5027306;28;20029;-75
2021/12/20 13:16:26;;;;;;;3.20;0.70;;;;;;;;;;5030001;28;20109;-74
2021/12/20 13:18:53;;;;;;;7.32;1.50;;;;;;;;;;5010824;28;20029;-73
2021/12/20 13:21:25;;;;;;;5.38;0.57;;;;;;;;;;5012906;28;20030;-76
2021/12/20 13:23:50;;;;;;;4.55;0.80;;;;;;;;;;4997617;28;20051;-74
2021/12/20 13:26:17;;;;;;;5.63;0.93;;;;;;;;;;5028527;28;20062;-70
2021/12/20 13:28:48;;;;;;;4.32;1.48;;;;;;;;;;5028846;28;20029;-70
2021/12/20 13:31:17;;;;;;;8.20;1.10;;;;;;;;;;5030582;28;20021;-71
2021/12/20 13:33:45;;;;;;;6.25;1.02;;;;;;;;;;5030594;28;20025;-71
2021/12/20 13:36:33;;;;;;;3.88;0.90;;;;;;;;;;5012742;28;20473;-70
2021/12/20 13:38:59;;;;;;;7.50;0.90;;;;;;;;;;5012763;28;20042;-70
2021/12/20 13:41:26;;;;;;;4.57;1.03;;;;;;;;;;5021472;28;20079;-68
2021/12/20 13:43:56;;;;;;;6.07;0.93;;;;;;;;;;5034020;28;20127;-72
2021/12/20 13:46:30;;;;;;;7.07;0.90;;;;;;;;;;5034342;28;20329;-71
2021/12/20 13:49:00;;;;;;;7.63;0.82;;;;;;;;;;5045925;28;20017;-71
2021/12/20 13:51:30;;;;;;;5.43;0.90;;;;;;;;;;5040213;28;20033;-70
2021/12/20 13:53:55;;;;;;;6.30;1.17;;;;;;;;;;5029574;28;20025;-70
2021/12/20 13:56:21;;;;;;;5.70;1.23;;;;;;;;;;5030076;28;20481;-70
2021/12/20 13:58:47;;;;;;;5.77;0.73;;;;;;;;;;5031612;28;20497;-70
2021/12/20 14:01:13;;;;;;;5.40;1.13;;;;;;;;;;5034581;28;20104;-70
2021/12/20 14:03:39;;;;;;;6.10;1.27;;;;;;;;;;5029568;28;20133;-70
2021/12/20 14:06:05;;;;;;;3.87;0.70;;;;;;;;;;5034161;28;20092;-69
2021/12/20 14:08:30;;;;;;;6.07;1.17;;;;;;;;;;5025932;28;20463;-70
2021/12/20 14:10:56;;;;;;;4.97;1.20;;;;;;;;;;5027295;28;20462;-70
2021/12/20 14:13:23;;;;;;;3.60;0.60;;;;;;;;;;5015162;28;20037;-71
2021/12/20 14:15:55;;;;;;;6.97;1.10;;;;;;;;;;5033233;28;20537;-70
2021/12/20 14:18:25;;;;;;;6.03;0.70;;;;;;;;;;5032834;28;20033;-69
2021/12/20 14:20:56;;;;;;;4.63;1.47;;;;;;;;;;5033369;28;20037;-72
2021/12/20 14:23:36;;;;;;;3.63;0.70;;;;;;;;;;5022453;28;20033;-71
2021/12/20 14:26:09;;;;;;;4.30;1.03;;;;;;;;;;5011376;28;20080;-69
2021/12/20 14:28:40;;;;;;;5.10;0.77;;;;;;;;;;5033558;28;20056;-70
2021/12/20 14:31:33;;;;;;;4.22;0.50;;;;;;;;;;5014250;28;20013;-70
2021/12/20 14:33:59;;;;;;;4.37;0.60;;;;;;;;;;5025930;28;20367;-71
2021/12/20 14:36:25;;;;;;;5.67;0.80;;;;;;;;;;5032989;28;20045;-70
2021/12/20 14:38:54;;;;;;;7.87;0.80;;;;;;;;;;5028543;28;20560;-70
2021/12/20 14:41:21;;;;;;;9.60;1.23;;;;;;;;;;5029873;28;20091;-70
2021/12/20 14:43:47;;;;;;;3.07;0.50;;;;;;;;;;5015215;28;20060;-69
2021/12/20 14:46:14;;;;;;;4.60;1.27;;;;;;;;;;5015127;28;20053;-70
2021/12/20 14:48:50;;;;;;;3.40;0.83;;;;;;;;;;5033118;28;20021;-70
2021/12/20 14:51:16;;;;;;;4.70;0.73;;;;;;;;;;5032846;28;20037;-69
2021/12/20 14:53:41;;;;;;;5.47;1.37;;;;;;;;;;5033019;28;20029;-71
2021/12/20 14:56:08;;;;;;;4.47;1.20;;;;;;;;;;5033422;28;20033;-69
2021/12/20 14:58:33;;;;;;;6.20;0.97;;;;;;;;;;5033492;28;20117;-70